createdAt,value
2018-07-05T00:00:57.767Z,99.99
2018-07-05T00:01:57.759Z,99.99
2018-07-05T00:02:57.502Z,99.99
2018-07-05T00:03:57.748Z,99.99
2018-07-05T00:04:57.750Z,99.99
2018-07-05T00:05:57.749Z,99.99
2018-07-05T00:06:57.738Z,99.99
2018-07-05T00:07:57.735Z,99.99
2018-07-05T00:08:57.730Z,99.99
2018-07-05T00:09:57.725Z,99.99
2018-07-05T00:10:57.718Z,99.99
2018-07-05T00:11:57.712Z,99.99
2018-07-05T00:12:57.453Z,99.99
2018-07-05T00:13:57.710Z,99.99
2018-07-05T00:14:57.700Z,99.99
2018-07-05T00:15:57.698Z,99.99
2018-07-05T00:16:57.694Z,99.99
2018-07-05T00:17:57.689Z,99.99
2018-07-05T00:18:57.680Z,99.99
2018-07-05T00:19:57.687Z,99.99
2018-07-05T00:20:57.678Z,99.99
2018-07-05T00:21:57.717Z,99.99
2018-07-05T00:22:57.672Z,99.99
2018-07-05T00:23:57.666Z,99.99
2018-07-05T00:24:57.685Z,99.99
2018-07-05T00:25:57.654Z,99.99
2018-07-05T00:26:57.649Z,99.99
2018-07-05T00:27:57.645Z,99.99
2018-07-05T00:28:57.637Z,99.99
2018-07-05T00:29:57.635Z,99.99
2018-07-05T00:30:57.636Z,99.99
2018-07-05T00:31:57.629Z,99.99
2018-07-05T00:32:57.369Z,99.99
2018-07-05T00:33:57.359Z,99.99
2018-07-05T00:34:57.609Z,99.99
2018-07-05T00:35:57.351Z,99.99
2018-07-05T00:36:57.629Z,99.99
2018-07-05T00:37:57.610Z,99.99
2018-07-05T00:38:57.340Z,99.99
2018-07-05T00:39:57.588Z,99.99
2018-07-05T00:40:57.586Z,99.99
2018-07-05T00:41:57.581Z,99.99
2018-07-05T00:42:57.574Z,99.99
2018-07-05T00:43:57.573Z,99.99
2018-07-05T00:44:57.572Z,99.99
2018-07-05T00:45:57.570Z,99.99
2018-07-05T00:46:57.558Z,99.99
2018-07-05T00:47:57.556Z,99.99
2018-07-05T00:48:57.574Z,99.99
2018-07-05T00:49:57.551Z,99.99
2018-07-05T00:50:57.289Z,99.99
2018-07-05T00:51:57.539Z,99.99
2018-07-05T00:52:57.535Z,99.99
2018-07-05T00:53:57.532Z,99.99
2018-07-05T00:54:57.533Z,99.99
2018-07-05T00:55:57.520Z,99.99
2018-07-05T00:56:57.516Z,99.99
2018-07-05T00:57:57.520Z,99.99
2018-07-05T00:58:57.524Z,99.99
2018-07-05T00:59:57.501Z,99.99
2018-07-05T01:00:57.499Z,99.99
2018-07-05T01:01:57.500Z,99.99
2018-07-05T01:02:57.490Z,99.99
2018-07-05T01:03:57.486Z,99.99
2018-07-05T01:04:57.480Z,99.99
2018-07-05T01:05:57.485Z,99.99
2018-07-05T01:06:57.472Z,99.99
2018-07-05T01:07:57.212Z,98.91
2018-07-05T01:08:57.464Z,98.33
2018-07-05T01:09:57.457Z,96.32
2018-07-05T01:10:57.453Z,97.75
2018-07-05T01:11:57.451Z,96.27
2018-07-05T01:12:57.448Z,96.51
2018-07-05T01:13:57.442Z,96.89
2018-07-05T01:14:57.434Z,97.75
2018-07-05T01:15:57.433Z,98.24
2018-07-05T01:16:57.428Z,97.09
2018-07-05T01:17:57.421Z,97.09
2018-07-05T01:18:57.164Z,97.18
2018-07-05T01:19:57.412Z,96.7
2018-07-05T01:20:57.157Z,97.38
2018-07-05T01:21:57.405Z,97.56
2018-07-05T01:22:57.400Z,94.5
2018-07-05T01:23:57.399Z,95.46
2018-07-05T01:24:57.390Z,95.27
2018-07-05T01:25:57.390Z,96.51
2018-07-05T01:26:57.384Z,95.56
2018-07-05T01:27:57.380Z,96.42
2018-07-05T01:28:57.120Z,96.61
2018-07-05T01:29:57.115Z,96.13
2018-07-05T01:30:57.365Z,97.18
2018-07-05T01:31:57.105Z,97.23
2018-07-05T01:32:57.101Z,97.23
2018-07-05T01:33:57.353Z,98.28
2018-07-05T01:34:57.095Z,95.79
2018-07-05T01:35:57.341Z,96.27
2018-07-05T01:36:57.343Z,96.37
2018-07-05T01:37:57.335Z,94.65
2018-07-05T01:38:57.328Z,93.79
2018-07-05T01:39:57.327Z,95.61
2018-07-05T01:40:57.323Z,96.75
2018-07-05T01:41:57.317Z,95.31
2018-07-05T01:42:57.315Z,95.07
2018-07-05T01:43:57.316Z,95.17
2018-07-05T01:44:57.306Z,95.36
2018-07-05T01:45:57.299Z,93.35
2018-07-05T01:46:57.292Z,92.11
2018-07-05T01:47:57.288Z,92.88
2018-07-05T01:48:57.034Z,88.76
2018-07-05T01:49:57.281Z,90.39
2018-07-05T01:50:57.020Z,87.9
2018-07-05T01:51:57.274Z,84.46
2018-07-05T01:52:57.011Z,86.18
2018-07-05T01:53:57.263Z,87.14
2018-07-05T01:54:57.261Z,87.04
2018-07-05T01:55:57.258Z,85.89
2018-07-05T01:56:57.249Z,85.13
2018-07-05T01:57:57.241Z,84.65
2018-07-05T01:58:57.239Z,83.89
2018-07-05T01:59:57.237Z,84.27
2018-07-05T02:00:57.232Z,83.03
2018-07-05T02:01:57.225Z,79.58
2018-07-05T02:02:57.221Z,80.25
2018-07-05T02:03:57.213Z,80.25
2018-07-05T02:04:57.212Z,80.25
2018-07-05T02:05:57.208Z,81.68
2018-07-05T02:06:57.202Z,82.54
2018-07-05T02:07:57.195Z,82.54
2018-07-05T02:08:57.189Z,83.22
2018-07-05T02:09:57.187Z,83.5
2018-07-05T02:10:57.187Z,82.93
2018-07-05T02:11:56.923Z,80.35
2018-07-05T02:12:57.174Z,81.97
2018-07-05T02:13:57.170Z,84.08
2018-07-05T02:14:57.161Z,85.41
2018-07-05T02:15:57.162Z,84.46
2018-07-05T02:16:57.157Z,85.99
2018-07-05T02:17:57.188Z,87.81
2018-07-05T02:18:57.145Z,85.03
2018-07-05T02:19:56.883Z,85.99
2018-07-05T02:20:57.138Z,86.76
2018-07-05T02:21:57.128Z,87.52
2018-07-05T02:22:57.126Z,82.93
2018-07-05T02:23:57.120Z,81.11
2018-07-05T02:24:57.118Z,78.43
2018-07-05T02:25:57.108Z,80.06
2018-07-05T02:26:57.106Z,78.2
2018-07-05T02:27:57.101Z,79.68
2018-07-05T02:28:56.838Z,79.77
2018-07-05T02:29:57.092Z,80.98
2018-07-05T02:30:57.091Z,81.45
2018-07-05T02:31:57.086Z,82.03
2018-07-05T02:32:57.089Z,82.17
2018-07-05T02:33:57.074Z,81.65
2018-07-05T02:34:57.071Z,81.02
2018-07-05T02:35:57.061Z,80.82
2018-07-05T02:36:57.060Z,81.3
2018-07-05T02:37:57.050Z,79.58
2018-07-05T02:38:57.045Z,79.77
2018-07-05T02:39:57.043Z,80.73
2018-07-05T02:40:56.780Z,80.16
2018-07-05T02:41:57.032Z,80.44
2018-07-05T02:42:57.027Z,79.39
2018-07-05T02:43:57.027Z,80.73
2018-07-05T02:44:57.021Z,81.59
2018-07-05T02:45:57.015Z,82.74
2018-07-05T02:46:57.007Z,82.26
2018-07-05T02:47:57.003Z,82.64
2018-07-05T02:48:56.995Z,82.64
2018-07-05T02:49:56.992Z,81.21
2018-07-05T02:50:56.994Z,80.73
2018-07-05T02:51:56.989Z,77.28
2018-07-05T02:52:56.983Z,77
2018-07-05T02:53:56.973Z,75.66
2018-07-05T02:54:56.966Z,73.55
2018-07-05T02:55:56.960Z,72.69
2018-07-05T02:56:56.955Z,73.08
2018-07-05T02:57:56.698Z,72.5
2018-07-05T02:58:56.950Z,73.08
2018-07-05T02:59:56.945Z,75.18
2018-07-05T03:00:56.936Z,76.9
2018-07-05T03:01:56.934Z,78.91
2018-07-05T03:02:56.930Z,79
2018-07-05T03:03:56.919Z,78.91
2018-07-05T03:04:56.928Z,77.95
2018-07-05T03:05:56.914Z,79.2
2018-07-05T03:06:56.985Z,78.91
2018-07-05T03:07:56.652Z,78.05
2018-07-05T03:08:56.641Z,77.09
2018-07-05T03:09:56.899Z,77.09
2018-07-05T03:10:56.942Z,76.9
2018-07-05T03:11:56.885Z,75.76
2018-07-05T03:12:56.874Z,73.46
2018-07-05T03:13:56.873Z,72.6
2018-07-05T03:14:56.872Z,72.22
2018-07-05T03:15:57.110Z,74.51
2018-07-05T03:16:56.856Z,74.04
2018-07-05T03:17:56.860Z,75.95
2018-07-05T03:18:56.846Z,77.57
2018-07-05T03:19:56.842Z,77.28
2018-07-05T03:20:56.839Z,78.63
2018-07-05T03:21:56.832Z,78.72
2018-07-05T03:22:56.829Z,78.43
2018-07-05T03:23:56.828Z,78.91
2018-07-05T03:24:56.815Z,79.96
2018-07-05T03:25:56.816Z,76.9
2018-07-05T03:26:56.808Z,75.85
2018-07-05T03:27:56.548Z,73.75
2018-07-05T03:28:56.538Z,74.32
2018-07-05T03:29:56.534Z,75.56
2018-07-05T03:30:56.786Z,75.09
2018-07-05T03:31:56.785Z,72.22
2018-07-05T03:32:56.774Z,72.22
2018-07-05T03:33:56.771Z,70.78
2018-07-05T03:34:56.762Z,70.4
2018-07-05T03:35:56.762Z,70.97
2018-07-05T03:36:56.756Z,71.64
2018-07-05T03:37:56.749Z,72.22
2018-07-05T03:38:56.487Z,73.46
2018-07-05T03:39:56.481Z,72.41
2018-07-05T03:40:56.477Z,72.98
2018-07-05T03:41:56.730Z,74.48
2018-07-05T03:42:56.724Z,74.99
2018-07-05T03:43:56.722Z,74.7
2018-07-05T03:44:56.713Z,75.27
2018-07-05T03:45:56.709Z,76.52
2018-07-05T03:46:56.701Z,78.05
2018-07-05T03:47:56.706Z,77
2018-07-05T03:48:56.693Z,75.27
2018-07-05T03:49:56.687Z,74.9
2018-07-05T03:50:56.684Z,75.37
2018-07-05T03:51:56.697Z,75.85
2018-07-05T03:52:56.420Z,72.22
2018-07-05T03:53:56.670Z,73.27
2018-07-05T03:54:56.669Z,72.02
2018-07-05T03:55:56.663Z,73.55
2018-07-05T03:56:56.661Z,72.98
2018-07-05T03:57:56.650Z,72.22
2018-07-05T03:58:56.647Z,69.92
2018-07-05T03:59:56.383Z,72.69
2018-07-05T04:00:56.631Z,70.4
2018-07-05T04:01:56.631Z,70.3
2018-07-05T04:02:56.629Z,72.12
2018-07-05T04:03:56.622Z,74.41
2018-07-05T04:04:56.360Z,75.02
2018-07-05T04:05:56.608Z,73.75
2018-07-05T04:06:56.604Z,76.65
2018-07-05T04:07:56.600Z,77.13
2018-07-05T04:08:56.593Z,74.36
2018-07-05T04:09:56.593Z,70.81
2018-07-05T04:10:56.329Z,70.24
2018-07-05T04:11:56.580Z,69.76
2018-07-05T04:12:56.578Z,68.8
2018-07-05T04:13:56.572Z,69.38
2018-07-05T04:14:56.565Z,70.53
2018-07-05T04:15:56.375Z,69.95
2018-07-05T04:16:56.569Z,71.3
2018-07-05T04:17:56.549Z,71.77
2018-07-05T04:18:56.550Z,72.54
2018-07-05T04:19:56.541Z,73.3
2018-07-05T04:20:56.538Z,72.73
2018-07-05T04:21:56.530Z,71.01
2018-07-05T04:22:56.524Z,70.47
2018-07-05T04:23:56.313Z,71.42
2018-07-05T04:24:56.518Z,71.52
2018-07-05T04:25:56.514Z,74.4
2018-07-05T04:26:56.252Z,73.24
2018-07-05T04:27:56.246Z,74.3
2018-07-05T04:28:56.241Z,75.83
2018-07-05T04:29:56.494Z,82.43
2018-07-05T04:30:56.232Z,84.2
2018-07-05T04:31:56.484Z,80.85
2018-07-05T04:32:56.479Z,78.27
2018-07-05T04:33:56.476Z,77.5
2018-07-05T04:34:56.479Z,78.84
2018-07-05T04:35:56.465Z,80.47
2018-07-05T04:36:56.461Z,81.13
2018-07-05T04:37:56.463Z,83.38
2018-07-05T04:38:56.461Z,85.88
2018-07-05T04:39:56.449Z,85.78
2018-07-05T04:40:56.443Z,84.63
2018-07-05T04:41:56.443Z,85.49
2018-07-05T04:42:56.434Z,87.6
2018-07-05T04:43:56.435Z,88.46
2018-07-05T04:44:56.425Z,88.27
2018-07-05T04:45:56.420Z,88.22
2018-07-05T04:46:56.422Z,86.35
2018-07-05T04:47:56.548Z,85.82
2018-07-05T04:48:56.407Z,89.18
2018-07-05T04:49:56.416Z,87.26
2018-07-05T04:50:56.405Z,86.58
2018-07-05T04:51:56.398Z,85.15
2018-07-05T04:52:56.394Z,85.05
2018-07-05T04:53:56.133Z,86.11
2018-07-05T04:54:56.389Z,86.4
2018-07-05T04:55:56.387Z,91.28
2018-07-05T04:56:56.380Z,93.4
2018-07-05T04:57:56.378Z,96.03
2018-07-05T04:58:56.117Z,96.03
2018-07-05T04:59:56.112Z,96.7
2018-07-05T05:00:56.368Z,98.53
2018-07-05T05:01:56.369Z,99.99
2018-07-05T05:02:56.362Z,99.99
2018-07-05T05:03:56.356Z,99.99
2018-07-05T05:04:56.351Z,99.99
2018-07-05T05:05:56.354Z,99.99
2018-07-05T05:06:56.348Z,99.99
2018-07-05T05:07:56.088Z,99.99
2018-07-05T05:08:56.340Z,99.99
2018-07-05T05:09:56.339Z,99.99
2018-07-05T05:10:56.340Z,99.99
2018-07-05T05:11:56.330Z,99.99
2018-07-05T05:12:56.326Z,99.99
2018-07-05T05:13:56.325Z,99.99
2018-07-05T05:14:56.438Z,99.99
2018-07-05T05:15:56.320Z,99.99
2018-07-05T05:16:56.317Z,99.99
2018-07-05T05:17:56.313Z,99.99
2018-07-05T05:18:56.450Z,99.99
2018-07-05T05:19:56.309Z,99.99
2018-07-05T05:20:56.051Z,99.99
2018-07-05T05:21:56.306Z,99.99
2018-07-05T05:22:56.303Z,99.99
2018-07-05T05:23:56.300Z,99.99
2018-07-05T05:24:56.306Z,99.99
2018-07-05T05:25:56.295Z,99.99
2018-07-05T05:26:56.292Z,99.99
2018-07-05T05:27:56.291Z,99.99
2018-07-05T05:28:56.288Z,99.99
2018-07-05T05:29:56.377Z,99.99
2018-07-05T05:30:56.284Z,99.99
2018-07-05T05:31:56.283Z,99.99
2018-07-05T05:32:56.023Z,99.99
2018-07-05T05:33:56.279Z,99.99
2018-07-05T05:34:56.272Z,99.99
2018-07-05T05:35:56.272Z,99.99
2018-07-05T05:36:56.271Z,99.99
2018-07-05T05:37:56.267Z,99.99
2018-07-05T05:38:56.319Z,99.99
2018-07-05T05:39:56.009Z,99.99
2018-07-05T05:40:56.005Z,99.99
2018-07-05T05:41:56.260Z,99.99
2018-07-05T05:42:56.259Z,99.99
2018-07-05T05:43:56.261Z,99.99
2018-07-05T05:44:56.253Z,99.99
2018-07-05T05:45:55.996Z,99.99
2018-07-05T05:46:56.250Z,99.99
2018-07-05T05:47:56.249Z,99.99
2018-07-05T05:48:56.249Z,99.99
2018-07-05T05:49:55.990Z,99.99
2018-07-05T05:50:56.242Z,99.99
2018-07-05T05:51:56.243Z,99.99
2018-07-05T05:52:56.241Z,99.99
2018-07-05T05:53:56.239Z,99.99
2018-07-05T05:54:55.980Z,99.99
2018-07-05T05:55:56.235Z,99.99
2018-07-05T05:56:56.237Z,99.99
2018-07-05T05:57:56.231Z,99.99
2018-07-05T05:58:56.229Z,99.99
2018-07-05T05:59:55.974Z,99.99
2018-07-05T06:00:56.227Z,99.99
2018-07-05T06:01:56.411Z,99.99
2018-07-05T06:02:56.224Z,99.99
2018-07-05T06:03:56.223Z,99.99
2018-07-05T06:04:55.968Z,99.99
2018-07-05T06:05:56.222Z,99.99
2018-07-05T06:06:56.223Z,99.99
2018-07-05T06:07:56.251Z,99.99
2018-07-05T06:08:56.219Z,99.99
2018-07-05T06:09:56.219Z,99.99
2018-07-05T06:10:56.218Z,99.99
2018-07-05T06:11:56.215Z,99.99
2018-07-05T06:12:56.225Z,99.99
2018-07-05T06:13:56.216Z,99.99
2018-07-05T06:14:55.957Z,99.99
2018-07-05T06:15:56.229Z,99.99
2018-07-05T06:16:56.215Z,99.99
2018-07-05T06:17:56.211Z,99.99
2018-07-05T06:18:56.212Z,99.99
2018-07-05T06:19:56.212Z,99.99
2018-07-05T06:20:56.208Z,99.99
2018-07-05T06:21:55.949Z,99.99
2018-07-05T06:22:55.950Z,99.99
2018-07-05T06:23:55.946Z,99.84
2018-07-05T06:24:56.199Z,99.35
2018-07-05T06:25:56.202Z,99.44
2018-07-05T06:26:56.203Z,97.91
2018-07-05T06:27:56.202Z,99.54
2018-07-05T06:28:56.202Z,99.35
2018-07-05T06:29:56.203Z,98.49
2018-07-05T06:30:56.206Z,96.94
2018-07-05T06:31:56.197Z,97.86
2018-07-05T06:32:55.942Z,97.14
2018-07-05T06:33:56.197Z,96.17
2018-07-05T06:34:56.199Z,96.32
2018-07-05T06:35:55.938Z,96.51
2018-07-05T06:36:55.940Z,96.99
2018-07-05T06:37:56.192Z,96.99
2018-07-05T06:38:56.191Z,97.67
2018-07-05T06:39:56.196Z,98.05
2018-07-05T06:40:55.938Z,99.99
2018-07-05T06:41:56.192Z,99.99
2018-07-05T06:42:56.191Z,96.56
2018-07-05T06:43:56.193Z,95.21
2018-07-05T06:44:56.196Z,95.11
2018-07-05T06:45:56.193Z,92.8
2018-07-05T06:46:56.192Z,84.69
2018-07-05T06:47:56.192Z,75.6
2018-07-05T06:48:56.192Z,70.1
2018-07-05T06:49:55.936Z,61.69
2018-07-05T06:50:55.938Z,55.06
2018-07-05T06:51:56.198Z,50.87
2018-07-05T06:52:56.253Z,45.79
2018-07-05T06:53:56.198Z,44.38
2018-07-05T06:54:56.198Z,41.28
2018-07-05T06:55:56.204Z,39.28
2018-07-05T06:56:55.947Z,37.75
2018-07-05T06:57:55.950Z,36.21
2018-07-05T06:58:56.211Z,37.11
2018-07-05T06:59:56.216Z,35.35
2018-07-05T07:00:55.964Z,34.19
2018-07-05T07:01:56.222Z,33.23
2018-07-05T07:02:56.229Z,34.52
2018-07-05T07:03:56.232Z,31.9
2018-07-05T07:04:56.242Z,33.1
2018-07-05T07:05:55.988Z,32.61
2018-07-05T07:06:55.994Z,30.85
2018-07-05T07:07:56.303Z,32.03
2018-07-05T07:08:56.263Z,29.3
2018-07-05T07:09:56.015Z,29.7
2018-07-05T07:10:56.275Z,27.36
2018-07-05T07:11:56.280Z,27.19
2018-07-05T07:12:56.287Z,28.17
2018-07-05T07:13:56.296Z,26.91
2018-07-05T07:14:56.303Z,26.12
2018-07-05T07:15:56.389Z,26.23
2018-07-05T07:16:56.316Z,27.02
2018-07-05T07:17:56.327Z,28
2018-07-05T07:18:56.334Z,26.92
2018-07-05T07:19:56.340Z,29.09
2018-07-05T07:20:56.353Z,26.35
2018-07-05T07:21:56.099Z,26.07
2018-07-05T07:22:56.368Z,25.37
2018-07-05T07:23:56.378Z,25.96
2018-07-05T07:24:56.381Z,26.26
2018-07-05T07:25:56.392Z,25.59
2018-07-05T07:26:56.405Z,24.8
2018-07-05T07:27:56.408Z,24.71
2018-07-05T07:28:56.420Z,24.62
2018-07-05T07:29:56.436Z,23.53
2018-07-05T07:30:56.442Z,23.83
2018-07-05T07:31:56.561Z,23.32
2018-07-05T07:32:56.456Z,24.21
2018-07-05T07:33:56.467Z,24.69
2018-07-05T07:34:56.478Z,24.88
2018-07-05T07:35:56.230Z,24.88
2018-07-05T07:36:56.495Z,24.29
2018-07-05T07:37:56.249Z,23.32
2018-07-05T07:38:56.519Z,23.63
2018-07-05T07:39:56.524Z,25.21
2018-07-05T07:40:56.534Z,23.43
2018-07-05T07:41:56.547Z,22.94
2018-07-05T07:42:56.558Z,23.33
2018-07-05T07:43:56.568Z,22.53
2018-07-05T07:44:56.576Z,23.52
2018-07-05T07:45:56.590Z,23.21
2018-07-05T07:46:56.595Z,23.02
2018-07-05T07:47:56.605Z,22.92
2018-07-05T07:48:56.633Z,22.23
2018-07-05T07:49:56.628Z,22.45
2018-07-05T07:50:56.386Z,23.24
2018-07-05T07:51:56.650Z,24.41
2018-07-05T07:52:56.663Z,22.85
2018-07-05T07:53:56.674Z,24.43
2018-07-05T07:54:56.680Z,22.85
2018-07-05T07:55:56.435Z,21.78
2018-07-05T07:56:56.707Z,21.47
2018-07-05T07:57:56.457Z,21.28
2018-07-05T07:58:56.729Z,21.97
2018-07-05T07:59:56.739Z,21.76
2018-07-05T08:00:56.749Z,21.26
2018-07-05T08:01:56.760Z,21.26
2018-07-05T08:02:56.769Z,20.68
2018-07-05T08:03:56.782Z,21.57
2018-07-05T08:04:56.535Z,21.77
2018-07-05T08:05:56.812Z,21.57
2018-07-05T08:06:56.809Z,22.05
2018-07-05T08:07:56.926Z,22.56
2018-07-05T08:08:56.830Z,22.06
2018-07-05T08:09:56.843Z,22.36
2018-07-05T08:10:56.608Z,21.18
2018-07-05T08:11:56.864Z,22.06
2018-07-05T08:12:56.873Z,21.08
2018-07-05T08:13:56.882Z,20.78
2018-07-05T08:14:56.918Z,20.88
2018-07-05T08:15:56.902Z,21.28
2018-07-05T08:16:56.657Z,22.15
2018-07-05T08:17:56.920Z,20.67
2018-07-05T08:18:56.930Z,21.84
2018-07-05T08:19:56.957Z,22.91
2018-07-05T08:20:56.947Z,23.49
2018-07-05T08:21:56.960Z,24.35
2018-07-05T08:22:56.963Z,23.34
2018-07-05T08:23:56.973Z,25.67
2018-07-05T08:24:56.977Z,26.15
2018-07-05T08:25:56.988Z,26.92
2018-07-05T08:26:57.010Z,27.87
2018-07-05T08:27:56.746Z,28.15
2018-07-05T08:28:57.025Z,28.71
2018-07-05T08:29:57.019Z,29.96
2018-07-05T08:30:57.021Z,31.6
2018-07-05T08:31:57.030Z,32.84
2018-07-05T08:32:57.037Z,31.57
2018-07-05T08:33:57.047Z,32.24
2018-07-05T08:34:57.049Z,33.78
2018-07-05T08:35:57.066Z,35.15
2018-07-05T08:36:57.065Z,34.06
2018-07-05T08:37:56.905Z,35.52
2018-07-05T08:38:57.080Z,37.46
2018-07-05T08:39:57.080Z,37.08
2018-07-05T08:40:57.091Z,39.78
2018-07-05T08:41:57.097Z,38.44
2018-07-05T08:42:57.098Z,37.27
2018-07-05T08:43:57.103Z,37.16
2018-07-05T08:44:57.184Z,37.06
2018-07-05T08:45:57.115Z,38.31
2018-07-05T08:46:57.129Z,38.11
2018-07-05T08:47:57.131Z,36.16
2018-07-05T08:48:57.130Z,37.04
2018-07-05T08:49:57.138Z,38.31
2018-07-05T08:50:57.144Z,38.19
2018-07-05T08:51:57.150Z,39.06
2018-07-05T08:52:57.150Z,44.14
2018-07-05T08:53:56.902Z,44.43
2018-07-05T08:54:57.163Z,41.61
2018-07-05T08:55:57.177Z,38.62
2018-07-05T08:56:57.175Z,37.74
2018-07-05T08:57:57.179Z,37.93
2018-07-05T08:58:57.182Z,41.34
2018-07-05T08:59:57.193Z,40.27
2018-07-05T09:00:57.193Z,37.54
2018-07-05T09:01:57.196Z,35.99
2018-07-05T09:02:57.206Z,36.96
2018-07-05T09:03:57.205Z,38.98
2018-07-05T09:04:56.957Z,37.14
2018-07-05T09:05:57.222Z,37.34
2018-07-05T09:06:57.223Z,36.94
2018-07-05T09:07:57.228Z,36.55
2018-07-05T09:08:56.975Z,36.16
2018-07-05T09:09:57.252Z,35.78
2018-07-05T09:10:57.241Z,35.39
2018-07-05T09:11:57.391Z,36.75
2018-07-05T09:12:57.251Z,37.43
2018-07-05T09:13:57.257Z,37.24
2018-07-05T09:14:57.259Z,37.04
2018-07-05T09:15:57.269Z,38.11
2018-07-05T09:16:57.271Z,37.04
2018-07-05T09:17:57.916Z,37.04
2018-07-05T09:18:57.278Z,35.78
2018-07-05T09:19:57.028Z,35.39
2018-07-05T09:20:57.288Z,35.1
2018-07-05T09:21:57.039Z,36.85
2018-07-05T09:22:57.299Z,36.46
2018-07-05T09:23:57.302Z,36.26
2018-07-05T09:24:57.305Z,36.07
2018-07-05T09:25:57.313Z,35.7
2018-07-05T09:26:57.318Z,35.7
2018-07-05T09:27:57.341Z,38.23
2018-07-05T09:28:57.069Z,35.5
2018-07-05T09:29:57.330Z,34.92
2018-07-05T09:30:57.332Z,33.75
2018-07-05T09:31:57.338Z,34.33
2018-07-05T09:32:57.354Z,35.7
2018-07-05T09:33:57.355Z,36.08
2018-07-05T09:34:57.359Z,35.99
2018-07-05T09:35:57.396Z,36.18
2018-07-05T09:36:57.363Z,36.79
2018-07-05T09:37:57.397Z,37.35
2018-07-05T09:38:57.114Z,36.69
2018-07-05T09:39:57.118Z,36.1
2018-07-05T09:40:57.388Z,34.94
2018-07-05T09:41:57.404Z,36
2018-07-05T09:42:57.130Z,36.2
2018-07-05T09:43:57.136Z,33.58
2018-07-05T09:44:57.398Z,32.91
2018-07-05T09:45:57.405Z,34.08
2018-07-05T09:46:57.211Z,34.56
2018-07-05T09:47:57.410Z,34.37
2018-07-05T09:48:57.416Z,37.19
2018-07-05T09:49:57.424Z,34.95
2018-07-05T09:50:57.425Z,34
2018-07-05T09:51:57.428Z,31.37
2018-07-05T09:52:57.179Z,32.73
2018-07-05T09:53:57.184Z,38.67
2018-07-05T09:54:57.191Z,36.24
2018-07-05T09:55:57.450Z,35.86
2018-07-05T09:56:57.456Z,34.31
2018-07-05T09:57:57.501Z,35
2018-07-05T09:58:57.466Z,33.06
2018-07-05T09:59:57.214Z,32.76
2018-07-05T10:00:57.479Z,33.25
2018-07-05T10:01:57.227Z,31.69
2018-07-05T10:02:57.486Z,30.62
2018-07-05T10:03:57.501Z,34.03
2018-07-05T10:04:57.500Z,31.59
2018-07-05T10:05:57.512Z,32.08
2018-07-05T10:06:57.507Z,31.88
2018-07-05T10:07:57.260Z,32.16
2018-07-05T10:08:57.521Z,31.76
2018-07-05T10:09:57.524Z,31.93
2018-07-05T10:10:57.271Z,31.73
2018-07-05T10:11:57.541Z,33.28
2018-07-05T10:12:57.661Z,33.28
2018-07-05T10:13:57.406Z,31.45
2018-07-05T10:14:57.552Z,32.23
2018-07-05T10:15:57.557Z,32.71
2018-07-05T10:16:57.565Z,31.74
2018-07-05T10:17:57.570Z,29.22
2018-07-05T10:18:57.316Z,29.03
2018-07-05T10:19:57.321Z,29.3
2018-07-05T10:20:57.582Z,29.02
2018-07-05T10:21:57.329Z,30.57
2018-07-05T10:22:57.336Z,29.21
2018-07-05T10:23:57.595Z,29.3
2018-07-05T10:24:57.347Z,31.25
2018-07-05T10:25:57.608Z,31.54
2018-07-05T10:26:57.654Z,32.31
2018-07-05T10:27:57.361Z,33.28
2018-07-05T10:28:57.367Z,30.54
2018-07-05T10:29:57.629Z,31.01
2018-07-05T10:30:57.633Z,31.6
2018-07-05T10:31:57.650Z,33.72
2018-07-05T10:32:57.742Z,32.84
2018-07-05T10:33:57.648Z,35.96
2018-07-05T10:34:57.652Z,38.48
2018-07-05T10:35:57.657Z,37.24
2018-07-05T10:36:57.663Z,35.49
2018-07-05T10:37:57.669Z,34.42
2018-07-05T10:38:57.671Z,34.05
2018-07-05T10:39:57.424Z,36.08
2018-07-05T10:40:57.683Z,35.31
2018-07-05T10:41:57.693Z,35.61
2018-07-05T10:42:57.441Z,31.45
2018-07-05T10:43:57.707Z,31.76
2018-07-05T10:44:57.702Z,32.16
2018-07-05T10:45:57.794Z,32.84
2018-07-05T10:46:57.713Z,33.62
2018-07-05T10:47:57.720Z,32.75
2018-07-05T10:48:57.727Z,31.77
2018-07-05T10:49:57.478Z,31.77
2018-07-05T10:50:57.736Z,33.22
2018-07-05T10:51:57.738Z,30.78
2018-07-05T10:52:57.490Z,29.5
2018-07-05T10:53:57.753Z,31.25
2018-07-05T10:54:57.758Z,31.34
2018-07-05T10:55:57.765Z,32.11
2018-07-05T10:56:57.765Z,35.33
2018-07-05T10:57:57.772Z,34.25
2018-07-05T10:58:57.775Z,35.03
2018-07-05T10:59:57.792Z,33.77
2018-07-05T11:00:57.805Z,34.74
2018-07-05T11:01:57.794Z,34.74
2018-07-05T11:02:57.801Z,33.38
2018-07-05T11:03:57.803Z,32.4
2018-07-05T11:04:57.820Z,35.42
2018-07-05T11:05:57.559Z,33.77
2018-07-05T11:06:57.819Z,32.32
2018-07-05T11:07:57.829Z,30.94
2018-07-05T11:08:57.831Z,30.46
2018-07-05T11:09:57.833Z,33.09
2018-07-05T11:10:57.841Z,34.72
2018-07-05T11:11:57.590Z,34.24
2018-07-05T11:12:57.853Z,33.85
2018-07-05T11:13:57.856Z,33.26
2018-07-05T11:14:57.871Z,33.17
2018-07-05T11:15:57.867Z,35.58
2018-07-05T11:16:57.874Z,34.03
2018-07-05T11:17:57.877Z,32.86
2018-07-05T11:18:57.625Z,33.54
2018-07-05T11:19:57.886Z,33.23
2018-07-05T11:20:57.999Z,34.4
2018-07-05T11:21:57.899Z,35.08
2018-07-05T11:22:57.904Z,35.08
2018-07-05T11:23:57.648Z,33.83
2018-07-05T11:24:57.909Z,33.64
2018-07-05T11:25:57.915Z,34.24
2018-07-05T11:26:57.929Z,37.54
2018-07-05T11:27:57.925Z,36.96
2018-07-05T11:28:57.929Z,33.86
2018-07-05T11:29:57.937Z,32.7
2018-07-05T11:30:57.941Z,31.53
2018-07-05T11:31:57.945Z,31.43
2018-07-05T11:32:57.952Z,32.99
2018-07-05T11:33:57.696Z,32.71
2018-07-05T11:34:57.703Z,32.03
2018-07-05T11:35:57.970Z,34.66
2018-07-05T11:36:57.974Z,31.84
2018-07-05T11:37:57.976Z,30.67
2018-07-05T11:38:57.983Z,30.29
2018-07-05T11:39:57.985Z,31.07
2018-07-05T11:40:57.992Z,31.85
2018-07-05T11:41:58.000Z,32.75
2018-07-05T11:42:58.001Z,29.24
2018-07-05T11:43:58.009Z,27.39
2018-07-05T11:44:58.010Z,29.92
2018-07-05T11:45:58.017Z,30.41
2018-07-05T11:46:58.030Z,30.99
2018-07-05T11:47:58.370Z,32.84
2018-07-05T11:48:58.038Z,34.11
2018-07-05T11:49:58.043Z,32.75
2018-07-05T11:50:58.051Z,31.17
2018-07-05T11:51:57.796Z,32.53
2018-07-05T11:52:58.067Z,31.37
2018-07-05T11:53:58.061Z,31.74
2018-07-05T11:54:58.146Z,30.77
2018-07-05T11:55:58.079Z,30.94
2018-07-05T11:56:58.080Z,32.11
2018-07-05T11:57:57.831Z,32.79
2018-07-05T11:58:58.090Z,33.28
2018-07-05T11:59:58.097Z,32.49
2018-07-05T12:00:58.102Z,32.78
2018-07-05T12:01:57.855Z,33.26
2018-07-05T12:02:58.343Z,32.37
2018-07-05T12:03:57.867Z,32.67
2018-07-05T12:04:58.123Z,32.67
2018-07-05T12:05:58.135Z,33.34
2018-07-05T12:06:58.132Z,34.9
2018-07-05T12:07:58.140Z,34.7
2018-07-05T12:08:58.144Z,34.9
2018-07-05T12:09:58.150Z,37.26
2018-07-05T12:10:58.152Z,37.45
2018-07-05T12:11:58.163Z,36.96
2018-07-05T12:12:58.165Z,38.52
2018-07-05T12:13:58.172Z,37.45
2018-07-05T12:14:58.177Z,37.45
2018-07-05T12:15:58.186Z,38.52
2018-07-05T12:16:58.189Z,38.03
2018-07-05T12:17:57.936Z,35.11
2018-07-05T12:18:57.940Z,36.38
2018-07-05T12:19:58.202Z,34.82
2018-07-05T12:20:58.207Z,34.63
2018-07-05T12:21:57.962Z,34.14
2018-07-05T12:22:57.963Z,33.75
2018-07-05T12:23:58.353Z,33.85
2018-07-05T12:24:58.232Z,36.79
2018-07-05T12:25:58.235Z,37.08
2018-07-05T12:26:58.243Z,34.45
2018-07-05T12:27:58.244Z,31.84
2018-07-05T12:28:58.267Z,31.45
2018-07-05T12:29:58.259Z,30.88
2018-07-05T12:30:58.267Z,31.76
2018-07-05T12:31:58.011Z,29.04
2018-07-05T12:32:58.274Z,28.07
2018-07-05T12:33:58.024Z,28.75
2018-07-05T12:34:58.290Z,27.3
2018-07-05T12:35:58.291Z,27.01
2018-07-05T12:36:58.297Z,27.79
2018-07-05T12:37:58.312Z,26.43
2018-07-05T12:38:58.312Z,25.65
2018-07-05T12:39:58.317Z,24.88
2018-07-05T12:40:58.325Z,25.37
2018-07-05T12:41:58.329Z,24.3
2018-07-05T12:42:58.338Z,26.56
2018-07-05T12:43:58.342Z,25.59
2018-07-05T12:44:58.351Z,23.24
2018-07-05T12:45:58.353Z,23.35
2018-07-05T12:46:58.366Z,21.39
2018-07-05T12:47:58.370Z,22.08
2018-07-05T12:48:58.386Z,21.2
2018-07-05T12:49:58.126Z,19.82
2018-07-05T12:50:58.135Z,21.39
2018-07-05T12:51:58.230Z,22.64
2018-07-05T12:52:58.401Z,24.49
2018-07-05T12:53:58.152Z,23.02
2018-07-05T12:54:58.414Z,23.02
2018-07-05T12:55:58.429Z,22.53